Time;durP1;ratioP1;P1;durP2;ratioP2;P2;SDS_P1;SDS_P2;PMS_P1;PMS_P2;Temp;Humidity;BMP_temperature;BMP_pressure;BME280_temperature;BME280_humidity;BME280_pressure;Samples;Min_cycle;Max_cycle;Signal;HPM_P1;HPM_P2
2021/12/17 00:07:24;;;;;;;2.78;2.10;;;;;;;15.58;33.12;98380.78;5072707;28;20056;-72
2021/12/17 00:09:50;;;;;;;8.95;2.35;;;;;;;15.68;33.03;98383.78;5039609;28;20045;-70
2021/12/17 00:12:21;;;;;;;4.55;2.00;;;;;;;15.83;32.64;98383.41;5056095;28;20570;-70
2021/12/17 00:14:49;;;;;;;4.50;2.53;;;;;;;15.81;32.87;98385.47;5088787;28;20048;-71
2021/12/17 00:17:21;;;;;;;2.60;1.80;;;;;;;15.66;33.02;98385.03;5055731;28;20054;-72
2021/12/17 00:20:15;;;;;;;4.28;2.30;;;;;;;15.30;33.44;98383.03;5073112;28;20044;-70
2021/12/17 00:52:34;;;;;;;4.07;2.08;;;;;;;15.44;33.16;98408.69;5072613;28;20068;-71
2021/12/17 00:55:00;;;;;;;4.73;1.90;;;;;;;15.27;32.83;98412.91;5022631;28;20040;-70
2021/12/17 00:57:30;;;;;;;4.60;2.17;;;;;;;15.32;33.03;98412.25;5072144;28;20287;-71
2021/12/17 00:59:57;;;;;;;3.72;1.88;;;;;;;15.27;32.83;98390.72;5039346;28;20482;-71
2021/12/17 01:02:30;;;;;;;3.95;2.03;;;;;;;15.73;32.52;98421.41;5071978;28;20106;-72
2021/12/17 01:05:03;;;;;;;4.15;2.22;;;;;;;15.80;32.54;98421.34;5039158;28;20086;-71
2021/12/17 01:07:33;;;;;;;4.43;2.38;;;;;;;15.72;32.62;98421.63;5055220;28;20049;-71
2021/12/17 01:10:04;;;;;;;8.73;2.80;;;;;;;15.59;33.05;98419.88;5071753;28;20124;-71
2021/12/17 01:12:37;;;;;;;4.70;2.88;;;;;;;14.95;33.08;98412.09;5071634;28;20041;-71
2021/12/17 01:15:25;;;;;;;3.72;2.58;;;;;;;15.55;32.77;98429.38;5055005;28;20386;-71
2021/12/17 01:18:17;;;;;;;3.80;2.42;;;;;;;15.58;32.53;98383.44;5071821;28;20458;-71
2021/12/17 01:21:58;;;;;;;4.35;2.78;;;;;;;15.25;32.91;98413.13;5068758;28;20646;-70
2021/12/17 01:25:19;;;;;;;5.43;2.67;;;;;;;15.23;32.93;98411.72;5069402;28;20040;-71
2021/12/17 01:36:13;;;;;;;2.90;2.50;;;;;;;15.50;32.32;98425.75;5043374;28;20044;-70
2021/12/17 01:42:09;;;;;;;4.10;2.53;;;;;;;15.56;32.12;98423.00;5054457;28;20040;-70
2021/12/17 01:44:11;;;;;;;4.72;2.60;;;;;;;15.67;32.02;98430.31;5060357;28;20413;-70
2021/12/17 01:46:38;;;;;;;4.05;2.72;;;;;;;15.79;32.20;98428.53;5037621;28;20845;-70
2021/12/17 02:00:21;;;;;;;4.38;2.88;;;;;;;16.07;31.83;98441.44;5054243;28;20044;-70
2021/12/17 02:02:52;;;;;;;4.18;3.15;;;;;;;15.85;31.96;98408.91;5054644;28;20055;-69
2021/12/17 02:05:28;;;;;;;4.22;2.65;;;;;;;15.61;32.07;98452.59;5055700;28;20086;-71
2021/12/17 02:07:56;;;;;;;5.50;3.05;;;;;;;15.54;32.15;98454.53;5087380;28;20076;-72
2021/12/17 02:13:09;;;;;;;5.78;2.80;;;;;;;15.70;31.72;98458.50;5070207;28;19924;-71
2021/12/17 02:29:21;;;;;;;4.65;3.25;;;;;;;15.90;31.22;98461.84;5054014;28;20059;-71
2021/12/17 02:31:47;;;;;;;3.83;3.40;;;;;;;15.51;31.38;98462.16;5039750;28;20037;-71
2021/12/17 02:36:46;;;;;;;4.10;3.53;;;;;;;15.66;31.42;98447.41;5053450;28;20052;-72
2021/12/17 02:47:17;;;;;;;4.93;3.80;;;;;;;15.38;31.23;98459.56;5070065;28;20400;-71
2021/12/17 02:49:45;;;;;;;6.75;4.03;;;;;;;15.61;31.27;98460.63;5069423;28;20036;-73
2021/12/17 02:52:13;;;;;;;4.45;3.75;;;;;;;15.61;31.07;98465.16;5053319;28;20112;-69
2021/12/17 02:54:39;;;;;;;4.90;4.40;;;;;;;15.43;31.54;98468.59;5019883;28;20500;-70
2021/12/17 02:57:07;;;;;;;6.28;4.30;;;;;;;15.64;31.07;98470.06;5052674;28;20155;-70
2021/12/17 02:59:34;;;;;;;5.13;3.58;;;;;;;15.23;31.33;98435.78;5019690;28;20040;-70
2021/12/17 03:02:00;;;;;;;5.60;3.80;;;;;;;14.99;31.25;98439.25;5070492;28;20131;-71
2021/12/17 03:04:27;;;;;;;4.80;4.13;;;;;;;15.48;31.33;98465.25;5052858;28;20044;-70
2021/12/17 03:06:54;;;;;;;5.60;4.07;;;;;;;15.35;30.88;98466.16;5052718;28;20059;-70
2021/12/17 03:09:32;;;;;;;4.85;3.80;;;;;;;15.16;31.05;98473.25;5053018;28;20076;-70
2021/12/17 03:11:58;;;;;;;6.30;3.90;;;;;;;15.06;31.03;98472.09;5054074;28;20101;-70
2021/12/17 03:14:25;;;;;;;5.00;3.60;;;;;;;15.15;31.25;98476.16;5036195;28;20044;-71
2021/12/17 03:17:01;;;;;;;4.97;4.15;;;;;;;15.05;31.29;98473.16;5069741;28;20055;-70
2021/12/17 03:24:58;;;;;;;4.07;3.50;;;;;;;14.91;30.98;98490.28;5049055;28;20041;-71
2021/12/17 03:27:24;;;;;;;4.05;3.15;;;;;;;14.77;31.08;98472.66;5083347;28;20036;-74
2021/12/17 03:29:49;;;;;;;5.35;3.70;;;;;;;14.88;31.29;98480.81;5050130;28;20044;-72
2021/12/17 03:32:16;;;;;;;4.85;3.67;;;;;;;14.99;31.09;98480.16;5052319;28;20045;-72
2021/12/17 03:34:41;;;;;;;5.20;4.05;;;;;;;14.90;31.13;98467.25;5036080;28;20036;-71
2021/12/17 03:37:08;;;;;;;4.15;3.75;;;;;;;14.97;31.01;98470.72;5035906;28;20464;-73
2021/12/17 03:39:44;;;;;;;4.53;3.42;;;;;;;14.72;31.15;98469.78;5053503;28;20622;-69
2021/12/17 03:42:14;;;;;;;5.13;3.45;;;;;;;14.66;31.18;98470.66;5051962;28;20062;-70
2021/12/17 03:44:39;;;;;;;4.70;3.83;;;;;;;14.64;31.36;98468.19;5068598;28;20113;-72
2021/12/17 03:47:16;;;;;;;5.30;4.03;;;;;;;14.67;31.27;98462.41;5038628;28;20044;-74
2021/12/17 03:50:11;;;;;;;5.10;4.00;;;;;;;14.84;31.35;98457.41;5055776;28;20053;-73
2021/12/17 03:52:37;;;;;;;6.57;3.90;;;;;;;14.55;31.37;98465.97;5036515;28;20068;-74
2021/12/17 03:55:04;;;;;;;6.97;4.37;;;;;;;14.77;31.47;98467.31;5035608;28;20044;-76
2021/12/17 03:57:36;;;;;;;5.18;3.83;;;;;;;14.36;31.56;98451.66;5036304;28;20075;-73
2021/12/17 04:00:07;;;;;;;6.20;4.28;;;;;;;15.10;31.10;98473.28;5051630;28;20131;-73
2021/12/17 04:02:43;;;;;;;5.60;3.77;;;;;;;14.47;31.77;98447.50;5068387;28;20044;-73
2021/12/17 04:05:14;;;;;;;5.13;3.55;;;;;;;14.42;31.70;98476.72;5052405;28;20496;-74
2021/12/17 04:07:40;;;;;;;4.83;3.67;;;;;;;14.36;31.68;98473.00;5034898;28;20155;-72
2021/12/17 04:10:29;;;;;;;3.30;3.00;;;;;;;14.40;31.40;98468.06;5010486;28;20110;-75
2021/12/17 04:13:12;;;;;;;4.97;3.00;;;;;;;14.43;31.05;98468.50;5052587;28;20053;-74
2021/12/17 04:15:38;;;;;;;3.60;3.28;;;;;;;14.58;31.08;98473.56;5036491;28;20040;-73
2021/12/17 04:18:09;;;;;;;3.63;2.45;;;;;;;14.79;30.98;98476.75;5018457;28;20530;-74
2021/12/17 04:20:36;;;;;;;2.97;2.67;;;;;;;14.68;31.08;98481.97;5052318;28;20214;-73
2021/12/17 04:23:02;;;;;;;5.35;3.05;;;;;;;14.76;31.05;98471.03;5051395;28;20044;-73
2021/12/17 04:25:29;;;;;;;3.88;2.38;;;;;;;14.77;30.94;98483.34;5034935;28;20055;-71
2021/12/17 04:27:56;;;;;;;3.55;2.70;;;;;;;15.08;30.75;98497.56;5068594;28;20107;-71
2021/12/17 04:30:23;;;;;;;5.93;3.58;;;;;;;14.90;30.75;98491.28;5068445;28;20056;-71
2021/12/17 04:32:50;;;;;;;5.32;2.67;;;;;;;14.94;30.70;98488.00;5068175;28;20044;-71
2021/12/17 04:35:17;;;;;;;8.32;3.00;;;;;;;14.86;30.74;98441.97;5051555;28;20079;-73
2021/12/17 04:37:49;;;;;;;2.53;2.33;;;;;;;15.24;30.46;98498.94;5054898;28;20048;-75
2021/12/17 04:40:16;;;;;;;7.13;2.90;;;;;;;15.16;30.61;98502.69;5071909;28;20404;-75
2021/12/17 04:42:59;;;;;;;2.95;2.55;;;;;;;15.23;30.26;98505.31;5071709;28;20041;-71
2021/12/17 04:45:29;;;;;;;4.63;2.40;;;;;;;15.22;30.18;98499.16;5062353;28;20040;-72
2021/12/17 04:59:17;;;;;;;2.70;2.08;;;;;;;15.02;30.13;98516.34;5071474;28;20131;-73
2021/12/17 05:01:46;;;;;;;2.35;2.00;;;;;;;15.04;29.85;98514.25;5071437;28;20048;-71
2021/12/17 05:04:11;;;;;;;5.57;2.10;;;;;;;14.95;30.11;98516.38;5054735;28;20186;-72
2021/12/17 05:06:38;;;;;;;4.30;2.00;;;;;;;14.93;29.87;98520.28;5071019;28;20128;-72
2021/12/17 05:09:21;;;;;;;3.72;1.80;;;;;;;15.01;29.78;98528.88;5067241;28;20650;-72
2021/12/17 05:20:12;;;;;;;2.25;1.75;;;;;;;15.12;29.85;98546.13;5072906;28;20079;-73
2021/12/17 05:22:38;;;;;;;1.40;1.30;;;;;;;14.97;29.71;98558.94;5054537;28;20133;-72
2021/12/17 05:25:04;;;;;;;2.40;1.83;;;;;;;15.15;29.84;98559.06;5090955;28;20061;-73
2021/12/17 05:27:30;;;;;;;4.43;2.20;;;;;;;15.09;29.80;98562.59;5056986;28;20118;-69
2021/12/17 05:30:00;;;;;;;6.35;2.10;;;;;;;15.12;30.17;98570.19;5057836;28;20067;-71
2021/12/17 05:32:26;;;;;;;8.57;2.30;;;;;;;14.92;29.99;98567.59;5087179;28;20044;-72
2021/12/17 05:34:57;;;;;;;6.40;2.50;;;;;;;15.00;29.86;98547.81;5039405;28;20036;-73
2021/12/17 05:37:23;;;;;;;3.55;1.92;;;;;;;14.93;29.92;98569.22;5031588;28;20098;-73
2021/12/17 05:39:49;;;;;;;6.55;2.17;;;;;;;15.14;30.00;98576.94;5053456;28;20048;-73
2021/12/17 05:42:19;;;;;;;4.88;2.40;;;;;;;15.07;29.63;98576.16;5070235;28;20036;-72
2021/12/17 05:44:58;;;;;;;3.58;2.28;;;;;;;15.15;29.76;98577.78;5055008;28;20053;-72
2021/12/17 05:47:24;;;;;;;2.55;2.10;;;;;;;15.30;29.33;98586.34;5053398;28;20044;-70
2021/12/17 05:49:50;;;;;;;3.30;2.40;;;;;;;15.23;29.27;98574.88;5052158;28;20066;-73
2021/12/17 05:52:16;;;;;;;4.82;2.50;;;;;;;15.12;29.58;98581.72;5069886;28;20415;-71
2021/12/17 05:54:42;;;;;;;3.75;2.30;;;;;;;15.21;29.78;98580.44;5077424;28;20048;-72
2021/12/17 05:57:09;;;;;;;7.53;2.50;;;;;;;14.98;29.76;98571.25;5039302;28;20059;-73
2021/12/17 05:59:36;;;;;;;4.72;2.65;;;;;;;14.94;29.99;98575.41;5053579;28;20078;-72
2021/12/17 06:02:09;;;;;;;4.63;2.55;;;;;;;14.95;30.17;98591.25;5020791;28;20405;-71
2021/12/17 06:04:38;;;;;;;8.30;2.90;;;;;;;15.25;29.91;98588.84;5021476;28;20044;-72
2021/12/17 06:07:05;;;;;;;4.45;2.47;;;;;;;14.96;30.02;98592.06;5036635;28;20443;-73
2021/12/17 06:09:33;;;;;;;8.95;2.78;;;;;;;15.00;30.06;98583.41;5036399;28;20488;-72
2021/12/17 06:12:03;;;;;;;7.07;2.95;;;;;;;15.00;30.31;98575.38;5036657;28;20044;-71
2021/12/17 06:14:30;;;;;;;5.25;2.72;;;;;;;15.07;30.15;98596.72;5020548;28;20052;-73
2021/12/17 06:16:57;;;;;;;4.18;2.03;;;;;;;15.27;30.31;98606.31;5070313;28;20056;-73
2021/12/17 06:19:34;;;;;;;2.92;1.90;;;;;;;14.68;29.91;98546.91;5039586;28;20056;-72
2021/12/17 06:22:00;;;;;;;2.10;1.50;;;;;;;14.96;29.68;98600.09;5020155;28;20048;-74
2021/12/17 06:24:27;;;;;;;2.17;1.70;;;;;;;14.99;29.59;98608.50;5036371;28;20114;-72
2021/12/17 06:26:54;;;;;;;1.83;1.33;;;;;;;14.86;29.23;98607.72;5036234;28;20036;-73
2021/12/17 06:29:20;;;;;;;2.30;1.50;;;;;;;14.97;29.83;98620.44;5019793;28;20036;-73
2021/12/17 06:31:50;;;;;;;2.97;1.55;;;;;;;15.01;29.75;98621.66;5037506;28;20051;-72
2021/12/17 06:34:17;;;;;;;4.03;1.60;;;;;;;14.97;29.83;98612.41;5037042;28;20577;-70
2021/12/17 06:36:43;;;;;;;1.95;1.50;;;;;;;15.13;29.28;98625.31;5052543;28;20048;-71
2021/12/17 06:39:09;;;;;;;2.40;1.40;;;;;;;15.06;29.44;98621.84;5052465;28;20131;-72
2021/12/17 06:41:38;;;;;;;1.45;1.20;;;;;;;15.01;29.34;98627.00;5052475;28;20044;-70
2021/12/17 06:44:06;;;;;;;1.30;1.20;;;;;;;14.90;29.13;98600.91;5052271;28;20520;-70
2021/12/17 06:46:51;;;;;;;3.50;1.98;;;;;;;14.99;28.67;98637.09;5020312;28;20131;-70
2021/12/17 06:49:28;;;;;;;2.80;1.30;;;;;;;15.03;29.14;98638.31;5038309;28;20048;-71
2021/12/17 07:01:18;;;;;;;4.30;1.73;;;;;;;15.55;28.81;98639.97;5055124;28;20487;-71
2021/12/17 07:10:16;;;;;;;3.72;1.75;;;;;;;15.16;28.34;98646.28;5068265;28;20051;-70
2021/12/17 07:21:24;;;;;;;1.98;1.40;;;;;;;15.54;27.87;98663.25;5053588;28;20110;-69
2021/12/17 07:40:10;;;;;;;3.65;1.33;;;;;;;16.23;26.99;98682.00;5052021;28;20143;-70
2021/12/17 07:42:44;;;;;;;1.88;1.42;;;;;;;15.71;27.45;98693.03;5068259;28;20043;-69
2021/12/17 07:45:20;;;;;;;1.65;1.48;;;;;;;15.54;26.89;98687.34;5068124;28;20805;-70
2021/12/17 07:47:56;;;;;;;2.08;1.52;;;;;;;15.60;26.80;98685.66;5068258;28;20119;-68
2021/12/17 07:50:27;;;;;;;4.78;1.80;;;;;;;15.60;27.20;98683.81;5051880;28;20045;-69
2021/12/17 07:53:03;;;;;;;2.97;1.85;;;;;;;16.00;28.09;98677.22;5068086;28;20495;-70
2021/12/17 07:55:32;;;;;;;5.85;2.75;;;;;;;15.77;27.51;98679.63;5051932;28;20044;-70
2021/12/17 07:58:03;;;;;;;5.57;2.53;;;;;;;15.92;27.19;98688.16;5053005;28;20504;-70
2021/12/17 08:00:35;;;;;;;5.45;2.10;;;;;;;16.32;27.18;98689.56;5067695;28;20472;-70
2021/12/17 08:03:02;;;;;;;5.60;2.40;;;;;;;15.78;26.64;98659.00;5034975;28;20048;-70
2021/12/17 08:06:03;;;;;;;;;;;;;;;17.06;25.89;98694.91;4976659;28;20441;-70
2021/12/17 08:08:35;;;;;;;7.63;2.45;;;;;;;16.07;26.86;98694.06;5035002;28;20518;-69
2021/12/17 08:11:10;;;;;;;9.18;2.30;;;;;;;15.94;27.07;98690.63;5037187;28;20225;-69
2021/12/17 08:13:36;;;;;;;2.90;2.10;;;;;;;15.88;27.11;98673.59;5038355;28;20627;-69
2021/12/17 08:31:28;;;;;;;5.63;2.72;;;;;;;15.98;26.52;98670.41;5038311;28;20130;-70
2021/12/17 08:33:54;;;;;;;4.05;2.42;;;;;;;15.88;26.75;98686.16;5071411;28;20077;-69
2021/12/17 08:36:20;;;;;;;2.78;2.00;;;;;;;15.85;26.92;98686.56;5021902;28;20060;-69
2021/12/17 08:38:49;;;;;;;4.68;2.70;;;;;;;16.22;26.75;98686.53;5054655;28;20036;-69
2021/12/17 08:41:40;;;;;;;5.07;2.47;;;;;;;15.91;26.67;98691.06;5058645;28;20048;-70
2021/12/17 08:44:08;;;;;;;4.40;2.35;;;;;;;16.03;27.34;98662.56;5075052;28;20044;-69
2021/12/17 08:46:39;;;;;;;7.60;3.08;;;;;;;15.84;26.87;98692.94;5075181;28;20043;-70
2021/12/17 08:49:17;;;;;;;7.43;3.00;;;;;;;15.78;26.85;98683.91;5029486;28;20032;-69
2021/12/17 08:52:15;;;;;;;4.72;2.17;;;;;;;15.86;26.53;98691.72;5068064;28;20100;-70
2021/12/17 08:54:42;;;;;;;3.50;2.20;;;;;;;16.17;26.49;98699.78;5088782;28;20044;-69
2021/12/17 08:57:09;;;;;;;3.10;2.08;;;;;;;16.02;26.38;98688.50;5071980;28;20040;-69
2021/12/17 08:59:38;;;;;;;3.65;2.00;;;;;;;16.21;26.61;98695.59;5089045;28;20118;-70
2021/12/17 09:02:13;;;;;;;2.80;2.00;;;;;;;16.00;26.53;98690.59;5108335;28;20389;-72
2021/12/17 09:04:48;;;;;;;2.30;1.80;;;;;;;16.01;26.77;98702.94;5059844;28;20036;-69
2021/12/17 09:07:16;;;;;;;2.55;2.10;;;;;;;15.70;27.29;98694.06;5073594;28;20074;-69
2021/12/17 09:09:44;;;;;;;4.25;1.80;;;;;;;15.62;27.63;98681.72;5074234;28;20070;-70
2021/12/17 09:12:25;;;;;;;2.85;2.40;;;;;;;15.96;27.68;98683.22;5045070;28;20040;-69
2021/12/17 09:14:54;;;;;;;3.15;2.20;;;;;;;15.85;27.89;98687.38;5058264;28;20043;-69
2021/12/17 09:17:38;;;;;;;4.38;2.50;;;;;;;16.04;27.50;98694.47;5090694;28;20131;-70
2021/12/17 09:20:07;;;;;;;2.97;2.00;;;;;;;15.88;27.20;98691.50;5057810;28;20040;-71
2021/12/17 09:22:33;;;;;;;3.30;2.35;;;;;;;15.97;27.70;98707.09;5073628;28;20042;-69
2021/12/17 09:25:04;;;;;;;4.32;2.40;;;;;;;15.95;27.65;98695.78;5090391;28;20083;-70
2021/12/17 09:27:48;;;;;;;2.88;2.20;;;;;;;15.72;27.62;98708.88;5076183;28;20043;-70
2021/12/17 09:30:24;;;;;;;3.33;2.65;;;;;;;15.77;27.51;98703.72;5090107;28;20038;-70
2021/12/17 09:32:50;;;;;;;3.20;2.47;;;;;;;15.76;27.54;98669.91;5073355;28;20466;-70
2021/12/17 09:35:16;;;;;;;5.55;2.70;;;;;;;15.92;28.27;98693.53;5073830;28;20040;-70
2021/12/17 09:37:42;;;;;;;3.45;2.70;;;;;;;15.83;27.19;98699.34;5056418;28;20138;-69
2021/12/17 09:40:10;;;;;;;3.70;2.65;;;;;;;16.26;27.20;98694.97;5106935;28;20071;-69
2021/12/17 09:42:36;;;;;;;3.03;2.50;;;;;;;16.05;27.34;98698.00;5090210;28;20052;-69
2021/12/17 09:45:04;;;;;;;3.53;2.88;;;;;;;16.16;27.13;98681.25;5091539;28;20160;-70
2021/12/17 09:47:30;;;;;;;6.45;2.80;;;;;;;15.91;27.48;98697.25;5056947;28;20461;-70
2021/12/17 09:49:57;;;;;;;4.47;2.75;;;;;;;16.09;27.50;98697.34;5089872;28;20036;-70
2021/12/17 09:52:24;;;;;;;3.30;2.60;;;;;;;15.76;27.41;98701.25;5091103;28;20499;-70
2021/12/17 09:54:51;;;;;;;5.50;3.05;;;;;;;16.12;27.20;98693.41;5073205;28;20538;-71
2021/12/17 09:57:19;;;;;;;6.18;3.35;;;;;;;16.08;27.43;98692.19;5056409;28;20122;-73
2021/12/17 09:59:45;;;;;;;4.43;2.97;;;;;;;16.02;26.99;98699.22;5090050;28;20397;-71
2021/12/17 10:02:12;;;;;;;6.20;2.95;;;;;;;16.42;26.95;98711.31;5073398;28;20044;-71
2021/12/17 10:04:45;;;;;;;6.68;2.78;;;;;;;16.61;26.72;98714.91;5090972;28;20503;-70
2021/12/17 10:07:21;;;;;;;5.97;3.05;;;;;;;16.88;26.48;98719.84;5040794;28;20052;-70
2021/12/17 10:10:03;;;;;;;5.18;3.08;;;;;;;16.92;26.61;98722.91;5089420;28;20046;-71
2021/12/17 10:12:32;;;;;;;3.88;2.75;;;;;;;16.66;26.60;98723.13;5089277;28;20051;-70
2021/12/17 10:15:07;;;;;;;6.70;3.35;;;;;;;16.80;26.12;98717.44;5089253;28;20039;-70
2021/12/17 10:17:37;;;;;;;4.45;3.05;;;;;;;16.58;26.21;98726.91;5089682;28;20130;-71
2021/12/17 10:20:07;;;;;;;10.55;2.90;;;;;;;16.66;26.27;98723.13;5073166;28;20040;-70
2021/12/17 10:22:33;;;;;;;3.63;2.80;;;;;;;16.33;26.35;98720.66;5056586;28;20411;-71
2021/12/17 10:25:06;;;;;;;5.13;3.08;;;;;;;16.74;26.71;98723.66;5073443;28;20130;-68
2021/12/17 10:27:41;;;;;;;5.07;2.83;;;;;;;16.79;26.24;98733.72;5106917;28;20047;-70
2021/12/17 10:30:14;;;;;;;5.13;2.88;;;;;;;16.94;26.15;98730.72;5072680;28;20043;-70
2021/12/17 10:32:48;;;;;;;4.45;2.70;;;;;;;16.88;25.86;98737.81;5072287;28;20051;-71
2021/12/17 10:35:21;;;;;;;3.97;2.80;;;;;;;16.71;26.16;98737.50;5088468;28;20471;-70
2021/12/17 10:37:52;;;;;;;5.43;3.10;;;;;;;16.71;26.25;98739.41;5072284;28;20069;-71
2021/12/17 10:40:21;;;;;;;4.20;2.60;;;;;;;16.71;26.39;98731.34;5072866;28;20040;-71
2021/12/17 10:42:55;;;;;;;5.88;2.75;;;;;;;16.61;26.52;98731.84;5073020;28;20090;-70
2021/12/17 10:45:27;;;;;;;4.70;2.88;;;;;;;16.37;26.13;98740.66;5090678;28;20044;-71
2021/12/17 10:48:24;;;;;;;4.57;2.67;;;;;;;16.85;25.49;98747.09;5056175;28;20100;-71
2021/12/17 10:51:03;;;;;;;4.63;3.15;;;;;;;16.55;26.37;98754.16;5073397;28;20113;-72
2021/12/17 10:53:29;;;;;;;4.82;3.33;;;;;;;15.68;27.42;98736.28;5075259;28;20144;-71
2021/12/17 10:55:56;;;;;;;5.60;3.40;;;;;;;15.92;27.43;98752.44;5070033;28;20131;-74
2021/12/17 10:58:23;;;;;;;7.45;3.85;;;;;;;15.91;27.57;98729.38;5073938;28;20442;-72
2021/12/17 11:00:55;;;;;;;8.00;3.83;;;;;;;16.25;27.67;98753.06;5052702;28;20126;-74
2021/12/17 11:03:22;;;;;;;7.22;3.40;;;;;;;15.63;28.28;98749.47;5052313;28;20420;-75
2021/12/17 11:05:48;;;;;;;7.00;3.90;;;;;;;15.49;28.74;98739.84;5051999;28;20447;-72
2021/12/17 11:08:24;;;;;;;4.78;3.22;;;;;;;16.19;28.15;98755.81;5067947;28;20139;-71
2021/12/17 11:11:00;;;;;;;7.35;3.40;;;;;;;15.84;28.89;98751.84;5051298;28;20105;-71
2021/12/17 11:13:26;;;;;;;6.88;3.80;;;;;;;15.69;28.68;98736.06;5052191;28;21027;-71
2021/12/17 11:15:53;;;;;;;7.40;3.88;;;;;;;15.98;28.65;98750.75;5069253;28;20411;-71
2021/12/17 11:18:20;;;;;;;10.50;3.90;;;;;;;15.91;28.53;98756.16;5069696;28;20453;-71
2021/12/17 11:20:46;;;;;;;5.45;3.50;;;;;;;15.79;28.04;98760.50;5069520;28;20058;-70
2021/12/17 11:23:14;;;;;;;8.00;3.42;;;;;;;15.58;28.01;98739.41;5067985;28;20072;-70
2021/12/17 11:25:45;;;;;;;5.28;3.60;;;;;;;16.07;27.85;98774.41;5051389;28;20040;-71
2021/12/17 11:28:11;;;;;;;6.18;3.55;;;;;;;15.89;28.10;98766.25;5051125;28;20567;-72
2021/12/17 11:30:40;;;;;;;4.32;3.10;;;;;;;16.05;27.59;98767.63;5051072;28;20036;-71
2021/12/17 11:33:07;;;;;;;7.68;3.40;;;;;;;15.55;28.07;98763.91;5051288;28;20044;-70
2021/12/17 11:35:35;;;;;;;7.45;3.60;;;;;;;15.99;27.74;98769.28;5051299;28;20048;-70
2021/12/17 11:38:05;;;;;;;6.45;3.20;;;;;;;15.97;27.83;98744.59;5067851;28;20040;-72
2021/12/17 11:40:36;;;;;;;5.82;3.20;;;;;;;16.17;27.83;98771.28;5067099;28;20045;-71
2021/12/17 11:43:26;;;;;;;7.05;3.70;;;;;;;16.42;27.10;98764.91;5050348;28;20049;-71
2021/12/17 11:46:00;;;;;;;5.40;3.22;;;;;;;16.15;27.46;98773.34;5066261;28;20040;-71
2021/12/17 11:48:29;;;;;;;8.75;3.40;;;;;;;15.89;27.62;98774.28;5067580;28;20193;-71
2021/12/17 11:51:13;;;;;;;7.18;3.92;;;;;;;16.33;27.01;98765.38;5084262;28;20504;-72
2021/12/17 11:53:55;;;;;;;7.13;4.45;;;;;;;16.39;27.04;98776.06;5066120;28;20052;-71
2021/12/17 11:56:54;;;;;;;6.63;4.22;;;;;;;16.17;27.12;98772.09;5049732;28;20068;-71
2021/12/17 11:59:23;;;;;;;6.18;4.05;;;;;;;15.88;27.76;98739.69;5035000;28;20051;-70
2021/12/17 12:01:56;;;;;;;6.85;4.20;;;;;;;16.26;27.67;98770.81;5065748;28;20036;-71
2021/12/17 12:04:43;;;;;;;5.15;3.40;;;;;;;16.22;26.92;98771.47;5066788;28;20052;-71
2021/12/17 12:07:24;;;;;;;6.70;3.58;;;;;;;16.39;26.88;98778.75;5067656;28;20527;-71
2021/12/17 12:09:57;;;;;;;;;;;;;;;16.48;26.07;98784.72;5067784;28;20036;-71
2021/12/17 12:12:33;;;;;;;6.78;3.38;;;;;;;16.33;26.87;98784.97;5057123;28;19924;-72
2021/12/17 12:15:22;;;;;;;5.82;3.50;;;;;;;16.46;26.35;98782.25;5104210;28;20489;-71
2021/12/17 12:17:58;;;;;;;6.50;3.17;;;;;;;16.30;26.49;98790.78;5071114;28;20040;-71
2021/12/17 12:20:50;;;;;;;5.32;3.30;;;;;;;16.46;26.49;98797.50;5071514;28;20039;-71
2021/12/17 12:23:28;;;;;;;6.50;2.78;;;;;;;16.26;26.29;98800.28;5087269;28;20097;-71
2021/12/17 12:26:03;;;;;;;7.40;3.13;;;;;;;16.40;26.45;98795.66;5070660;28;20051;-72
2021/12/17 12:28:44;;;;;;;6.63;2.85;;;;;;;16.45;26.15;98803.91;5087076;28;20041;-69
2021/12/17 12:31:32;;;;;;;5.15;2.92;;;;;;;16.31;26.10;98800.44;5054318;28;20048;-71
2021/12/17 12:34:05;;;;;;;8.20;3.33;;;;;;;16.15;26.54;98792.91;5078132;28;20599;-72
2021/12/17 12:36:58;;;;;;;5.45;3.15;;;;;;;16.48;26.17;98798.13;5088330;28;20089;-70
2021/12/17 12:39:38;;;;;;;7.40;3.45;;;;;;;16.17;26.56;98780.13;5071489;28;20044;-72
2021/12/17 12:42:12;;;;;;;7.45;3.35;;;;;;;16.00;26.44;98803.09;5054522;28;20048;-72
2021/12/17 12:44:44;;;;;;;6.47;3.40;;;;;;;16.39;26.92;98808.22;5054737;28;20036;-71
2021/12/17 12:47:26;;;;;;;9.15;3.58;;;;;;;16.31;26.28;98811.16;5070985;28;20047;-71
2021/12/17 12:50:06;;;;;;;6.38;3.72;;;;;;;16.45;26.29;98818.13;5053784;28;20151;-73
2021/12/17 12:52:38;;;;;;;10.43;6.45;;;;;;;15.68;26.83;98814.75;5088957;28;20549;-71
2021/12/17 12:55:11;;;;;;;14.15;7.20;;;;;;;16.07;26.48;98811.91;5038662;28;20057;-71
2021/12/17 12:57:49;;;;;;;21.15;8.70;;;;;;;16.06;26.60;98818.31;5089159;28;20040;-69
2021/12/17 13:00:24;;;;;;;12.25;6.82;;;;;;;16.21;26.30;98808.13;5090850;28;20079;-71
2021/12/17 13:02:55;;;;;;;9.23;4.30;;;;;;;16.13;26.42;98818.28;5056841;28;20522;-72
2021/12/17 13:05:22;;;;;;;11.05;4.00;;;;;;;15.96;26.82;98812.56;5057186;28;20050;-70
2021/12/17 13:07:51;;;;;;;6.80;3.28;;;;;;;15.76;26.56;98794.94;5056740;28;20435;-70
2021/12/17 13:10:27;;;;;;;7.43;3.72;;;;;;;15.98;26.59;98815.03;5057744;28;20108;-71
2021/12/17 13:13:00;;;;;;;13.38;3.53;;;;;;;15.91;26.38;98828.47;5056697;28;20040;-71
2021/12/17 13:23:54;;;;;;;7.90;4.18;;;;;;;15.85;26.86;98831.16;5073568;28;20040;-72
2021/12/17 13:26:23;;;;;;;10.55;5.30;;;;;;;15.86;26.83;98838.16;5090545;28;20136;-70
2021/12/17 13:29:10;;;;;;;13.75;5.45;;;;;;;15.75;27.00;98839.63;5091026;28;20458;-70
2021/12/17 13:31:56;;;;;;;10.70;5.00;;;;;;;15.93;27.19;98847.00;5092638;28;20126;-71
2021/12/17 13:34:25;;;;;;;12.48;6.13;;;;;;;15.75;27.65;98853.00;5054297;28;20046;-70
2021/12/17 13:36:51;;;;;;;13.65;6.50;;;;;;;15.13;27.86;98850.78;5068907;28;20040;-70
2021/12/17 13:39:18;;;;;;;14.07;5.38;;;;;;;15.44;28.09;98849.38;5069352;28;20554;-71
2021/12/17 13:41:46;;;;;;;8.13;4.68;;;;;;;15.63;28.05;98845.84;5068542;28;20037;-71
2021/12/17 13:44:25;;;;;;;13.85;5.70;;;;;;;15.96;27.75;98855.41;5053343;28;20676;-73
2021/12/17 13:46:52;;;;;;;10.63;4.93;;;;;;;15.50;28.33;98862.72;5036828;28;20041;-71
2021/12/17 13:49:19;;;;;;;13.10;4.97;;;;;;;15.62;28.33;98863.72;5037261;28;20037;-71
2021/12/17 13:51:46;;;;;;;6.32;4.22;;;;;;;15.43;28.58;98861.09;5071786;28;20110;-71
2021/12/17 13:54:12;;;;;;;8.00;4.65;;;;;;;15.19;28.52;98860.66;5053998;28;20135;-70
2021/12/17 13:56:38;;;;;;;10.32;4.95;;;;;;;15.32;28.73;98873.22;5037044;28;20048;-69
2021/12/17 13:59:07;;;;;;;10.52;5.47;;;;;;;15.57;28.71;98873.44;5037047;28;20033;-71
2021/12/17 14:01:36;;;;;;;10.45;5.57;;;;;;;15.66;28.76;98878.38;5070147;28;20504;-71
2021/12/17 14:04:11;;;;;;;14.98;6.28;;;;;;;15.80;28.57;98873.81;5069649;28;20037;-70
2021/12/17 14:06:50;;;;;;;9.13;5.60;;;;;;;15.57;28.97;98874.25;5069495;28;20110;-69
2021/12/17 14:09:16;;;;;;;10.73;6.30;;;;;;;15.14;29.08;98884.53;5036956;28;20040;-70
2021/12/17 14:11:42;;;;;;;12.60;6.32;;;;;;;15.23;28.94;98885.16;5036021;28;20042;-70
2021/12/17 14:14:26;;;;;;;12.23;6.32;;;;;;;16.06;28.46;98877.25;5035842;28;20039;-70
2021/12/17 14:17:01;;;;;;;14.55;6.18;;;;;;;15.87;28.79;98888.81;5069228;28;20397;-69
2021/12/17 14:19:46;;;;;;;12.80;6.18;;;;;;;16.10;28.46;98878.44;5070365;28;20056;-69
2021/12/17 14:22:29;;;;;;;12.48;6.07;;;;;;;16.02;28.70;98883.22;5068973;28;20814;-69
2021/12/17 14:24:56;;;;;;;8.98;5.55;;;;;;;15.69;29.25;98887.81;5069298;28;20079;-69
2021/12/17 14:27:22;;;;;;;11.65;5.82;;;;;;;15.33;29.29;98890.91;5068919;28;20090;-71
2021/12/17 14:30:03;;;;;;;13.05;6.15;;;;;;;16.08;28.93;98888.53;5076964;28;20044;-71
2021/12/17 14:32:29;;;;;;;9.77;5.30;;;;;;;15.48;29.04;98893.41;5080918;28;20072;-71
2021/12/17 14:34:55;;;;;;;4.32;3.08;;;;;;;15.37;28.15;98892.16;5085565;28;20123;-71
2021/12/17 14:37:21;;;;;;;6.93;3.20;;;;;;;15.17;27.46;98891.34;5051909;28;20082;-70
2021/12/17 14:39:48;;;;;;;3.97;2.50;;;;;;;15.25;27.57;98899.97;5068216;28;20048;-70
2021/12/17 14:42:29;;;;;;;4.88;2.13;;;;;;;15.97;26.92;98907.97;5068660;28;20170;-70
2021/12/17 14:45:00;;;;;;;3.65;2.13;;;;;;;15.81;27.33;98902.22;5052263;28;20056;-69
2021/12/17 14:47:32;;;;;;;;;;;;;;;16.14;26.56;98903.81;5052569;28;20040;-70
2021/12/17 15:04:03;;;;;;;7.00;2.55;;;;;;;15.41;26.89;98922.84;4960512;28;20132;-71
2021/12/17 15:06:28;;;;;;;6.82;2.40;;;;;;;15.23;27.38;98917.25;4988058;28;20047;-70